Time;durP1;ratioP1;P1;durP2;ratioP2;P2;SDS_P1;SDS_P2;PMS_P1;PMS_P2;Temp;Humidity;BMP_temperature;BMP_pressure;BME280_temperature;BME280_humidity;BME280_pressure;Samples;Min_cycle;Max_cycle;Signal;HPM_P1;HPM_P2
2022/03/11 00:02:16;;;;;;;22.97;10.97;;;;;;;;;;4981819;28;20430;-60
2022/03/11 00:04:44;;;;;;;17.60;10.70;;;;;;;;;;4983915;28;20429;-61
2022/03/11 00:07:10;;;;;;;21.03;12.77;;;;;;;;;;4982358;28;20461;-60
2022/03/11 00:09:36;;;;;;;18.70;13.20;;;;;;;;;;4982748;28;20898;-60
2022/03/11 00:12:02;;;;;;;20.80;11.90;;;;;;;;;;4985071;28;20433;-59
2022/03/11 00:14:28;;;;;;;25.33;11.90;;;;;;;;;;4984766;28;20426;-60
2022/03/11 00:16:54;;;;;;;19.13;12.10;;;;;;;;;;4981449;28;20455;-60
2022/03/11 00:19:20;;;;;;;21.50;12.87;;;;;;;;;;4980218;28;20442;-60
2022/03/11 00:21:46;;;;;;;20.60;12.53;;;;;;;;;;4984057;28;20909;-60
2022/03/11 00:24:12;;;;;;;25.30;12.50;;;;;;;;;;4984813;28;20429;-60
2022/03/11 00:26:38;;;;;;;20.83;12.03;;;8.30;99.90;;;;;;4965745;28;20466;-61
2022/03/11 00:29:04;;;;;;;16.33;12.47;;;;;;;;;;4980091;28;20431;-60
2022/03/11 00:31:30;;;;;;;24.03;12.73;;;;;;;;;;4981588;28;20192;-60
2022/03/11 00:33:56;;;;;;;21.27;13.87;;;;;;;;;;4984791;28;20422;-60
2022/03/11 00:36:23;;;;;;;17.57;11.47;;;;;;;;;;4983927;28;20928;-60
2022/03/11 00:38:49;;;;;;;17.57;12.00;;;;;;;;;;4981416;28;20502;-60
2022/03/11 00:41:16;;;;;;;22.30;13.53;;;;;;;;;;4981082;28;20427;-59
2022/03/11 00:43:42;;;;;;;18.40;13.00;;;;;;;;;;4983275;28;20433;-60
2022/03/11 00:46:08;;;;;;;24.53;13.47;;;;;;;;;;4984266;28;20465;-60
2022/03/11 00:48:34;;;;;;;20.17;12.50;;;;;;;;;;4983292;28;20789;-60
2022/03/11 00:51:00;;;;;;;24.67;12.83;;;;;;;;;;4981134;28;20514;-60
2022/03/11 00:53:27;;;;;;;20.03;12.53;;;;;;;;;;4980645;28;20467;-60
2022/03/11 00:55:54;;;;;;;20.50;11.73;;;;;;;;;;4984260;28;20480;-60
2022/03/11 00:58:20;;;;;;;23.57;13.60;;;;;;;;;;4985078;28;20419;-60
2022/03/11 01:00:46;;;;;;;21.67;12.90;;;;;;;;;;4981564;28;20490;-60
2022/03/11 01:03:12;;;;;;;26.13;13.53;;;;;;;;;;4982590;28;20433;-60
2022/03/11 01:05:38;;;;;;;24.27;13.93;;;;;;;;;;4982565;28;20666;-58
2022/03/11 01:08:04;;;;;;;20.10;13.30;;;6.50;99.90;;;;;;4981483;28;20517;-58
2022/03/11 01:10:30;;;;;;;19.60;13.03;;;;;;;;;;4983212;28;20430;-59
2022/03/11 01:12:56;;;;;;;22.57;12.87;;;;;;;;;;4982951;28;20418;-59
2022/03/11 01:15:22;;;;;;;23.33;13.30;;;;;;;;;;4984135;28;20431;-59
2022/03/11 01:17:48;;;;;;;34.23;14.40;;;;;;;;;;4985748;28;20418;-59
2022/03/11 01:20:14;;;;;;;25.60;13.77;;;;;;;;;;4968188;28;20422;-59
2022/03/11 01:22:40;;;;;;;26.03;13.50;;;;;;;;;;4984128;28;20589;-59
2022/03/11 01:25:07;;;;;;;24.90;13.53;;;;;;;;;;4983922;28;20445;-60
2022/03/11 01:27:33;;;;;;;22.87;13.30;;;;;;;;;;4967552;28;20445;-58
2022/03/11 01:29:59;;;;;;;23.10;13.20;;;;;;;;;;4982353;28;20425;-58
2022/03/11 01:32:25;;;;;;;22.87;13.30;;;;;;;;;;4983868;28;20427;-58
2022/03/11 01:34:51;;;;;;;22.37;13.20;;;;;;;;;;4985574;28;20429;-60
2022/03/11 01:37:17;;;;;;;30.17;15.60;;;;;;;;;;4980858;28;20429;-59
2022/03/11 01:39:44;;;;;;;22.93;14.77;;;;;;;;;;4980534;28;20905;-59
2022/03/11 01:42:10;;;;;;;26.90;14.37;;;;;;;;;;4965767;28;20936;-59
2022/03/11 01:44:36;;;;;;;26.43;14.50;;;;;;;;;;4982106;28;20427;-58
2022/03/11 01:47:02;;;;;;;24.40;13.60;;;5.80;99.90;;;;;;4979714;28;20466;-59
2022/03/11 01:49:28;;;;;;;23.00;15.10;;;5.30;99.90;;;;;;4980091;28;20522;-59
2022/03/11 01:51:54;;;;;;;22.33;13.10;;;;;;;;;;4982960;28;20525;-59
2022/03/11 01:54:20;;;;;;;24.70;13.80;;;;;;;;;;4983260;28;20221;-59
2022/03/11 01:56:46;;;;;;;22.53;13.23;;;;;;;;;;4983156;28;20425;-59
2022/03/11 01:59:12;;;;;;;26.03;13.63;;;;;;;;;;4982025;28;20832;-59
2022/03/11 02:01:39;;;;;;;22.30;14.50;;;;;;;;;;4981609;28;20481;-59
2022/03/11 02:04:05;;;;;;;19.93;13.13;;;;;;;;;;4979686;28;20431;-59
2022/03/11 02:06:31;;;;;;;23.43;13.03;;;;;;;;;;4980245;28;20565;-60
2022/03/11 02:08:58;;;;;;;20.23;13.20;;;;;;;;;;4983604;28;20430;-59
2022/03/11 02:11:24;;;;;;;27.00;13.93;;;;;;;;;;4979736;28;20422;-58
2022/03/11 02:13:50;;;;;;;27.50;13.97;;;;;;;;;;4982616;28;20422;-60
2022/03/11 02:16:17;;;;;;;24.70;13.43;;;;;;;;;;4982934;28;20504;-59
2022/03/11 02:18:44;;;;;;;20.67;13.10;;;;;;;;;;4980688;28;20874;-59
2022/03/11 02:21:10;;;;;;;22.73;14.50;;;;;;;;;;4979645;28;20431;-60
2022/03/11 02:23:38;;;;;;;24.40;13.93;;;;;;;;;;4980738;28;20509;-59
2022/03/11 02:26:04;;;;;;;24.57;13.90;;;;;;;;;;4982860;28;20508;-60
2022/03/11 02:28:33;;;;;;;27.33;14.67;;;;;;;;;;4982359;28;20454;-60
2022/03/11 02:30:59;;;;;;;24.53;14.67;;;;;;;;;;4979469;28;20426;-59
2022/03/11 02:33:25;;;;;;;28.90;14.97;;;;;;;;;;4979693;28;20419;-59
2022/03/11 02:35:52;;;;;;;28.43;14.30;;;;;;;;;;4982716;28;20716;-59
2022/03/11 02:38:18;;;;;;;22.40;14.13;;;;;;;;;;4982614;28;20449;-59
2022/03/11 02:40:44;;;;;;;20.47;14.27;;;;;;;;;;4980667;28;20430;-59
2022/03/11 02:43:10;;;;;;;26.10;15.40;;;;;;;;;;4979292;28;20497;-59
2022/03/11 02:45:37;;;;;;;27.73;15.43;;;;;;;;;;4980340;28;21032;-59
2022/03/11 02:48:03;;;;;;;28.63;14.73;;;;;;;;;;4982705;28;20437;-59
2022/03/11 02:50:29;;;;;;;27.13;14.97;;;;;;;;;;4982488;28;20422;-59
2022/03/11 02:52:55;;;;;;;24.53;13.93;;;;;;;;;;4979091;28;20467;-60
2022/03/11 02:55:21;;;;;;;24.20;13.63;;;;;;;;;;4979421;28;20780;-59
2022/03/11 02:57:47;;;;;;;27.60;15.03;;;;;;;;;;4987132;28;20512;-59
2022/03/11 03:00:13;;;;;;;22.93;14.13;;;;;;;;;;4981567;28;20246;-59
2022/03/11 03:02:39;;;;;;;25.10;15.10;;;;;;;;;;4984165;28;20430;-58
2022/03/11 03:05:05;;;;;;;26.23;15.17;;;;;;;;;;4986097;28;20434;-58
2022/03/11 03:07:32;;;;;;;24.10;13.90;;;;;;;;;;4982722;28;20433;-58
2022/03/11 03:09:58;;;;;;;26.00;13.97;;;;;;;;;;4985948;28;20920;-58
2022/03/11 03:12:25;;;;;;;24.80;15.40;;;;;;;;;;4968702;28;20472;-59
2022/03/11 03:14:51;;;;;;;25.73;14.80;;;;;;;;;;4982783;28;20489;-58
2022/03/11 03:17:21;;;;;;;29.63;14.67;;;;;;;;;;4982436;28;20434;-58
2022/03/11 03:19:47;;;;;;;30.40;15.30;;;;;;;;;;4985156;28;20920;-58
2022/03/11 03:22:14;;;;;;;29.87;15.17;;;;;;;;;;4985926;28;20520;-58
2022/03/11 03:24:40;;;;;;;29.47;13.33;;;;;;;;;;4984048;28;20434;-58
2022/03/11 03:27:06;;;;;;;29.53;14.97;;;;;;;;;;4982320;28;20498;-58
2022/03/11 03:29:32;;;;;;;29.50;15.43;;;;;;;;;;4982822;28;20478;-58
2022/03/11 03:31:58;;;;;;;26.20;14.23;;;;;;;;;;4985677;28;20428;-58
2022/03/11 03:34:31;;;;;;;26.53;14.63;;;;;;;;;;4985889;28;20418;-58
2022/03/11 03:36:58;;;;;;;21.40;13.23;;;;;;;;;;4986322;28;20426;-58
2022/03/11 03:39:24;;;;;;;23.87;14.20;;;;;;;;;;4982473;28;20431;-60
2022/03/11 03:41:51;;;;;;;28.63;15.77;;;;;;;;;;4985179;28;20433;-58
2022/03/11 03:44:17;;;;;;;28.30;15.27;;;;;;;;;;4985421;28;20831;-58
2022/03/11 03:46:43;;;;;;;28.23;14.20;;;;;;;;;;4983513;28;20959;-58
2022/03/11 03:49:09;;;;;;;21.50;13.60;;;;;;;;;;4981899;28;20473;-58
2022/03/11 03:51:35;;;;;;;20.97;12.50;;;;;;;;;;4982690;28;20518;-58
2022/03/11 03:54:01;;;;;;;30.23;16.43;;;;;;;;;;4985277;28;20506;-58
2022/03/11 03:56:27;;;;;;;26.10;14.67;;;;;;;;;;4985167;28;20809;-59
2022/03/11 03:58:53;;;;;;;31.43;16.10;;;;;;;;;;4989507;28;20510;-58
2022/03/11 04:01:20;;;;;;;26.73;16.00;;;;;;;;;;4981596;28;20792;-58
2022/03/11 04:03:46;;;;;;;24.30;14.93;;;;;;;;;;4984237;28;20422;-59
2022/03/11 04:06:12;;;;;;;28.70;15.90;;;;;;;;;;4985038;28;20465;-59
2022/03/11 04:08:39;;;;;;;23.83;14.53;;;;;;;;;;4969167;28;20435;-59
2022/03/11 04:11:06;;;;;;;26.80;14.33;;;;;;;;;;4979332;28;20521;-59
2022/03/11 04:13:32;;;;;;;27.67;14.83;;;;;;;;;;4982061;28;20430;-59
2022/03/11 04:15:58;;;;;;;28.20;14.27;;;;;;;;;;4984678;28;20426;-59
2022/03/11 04:18:24;;;;;;;33.07;15.63;;;;;;;;;;4984817;28;20807;-59
2022/03/11 04:20:50;;;;;;;22.50;14.07;;;;;;;;;;4964090;28;20446;-59
2022/03/11 04:23:16;;;;;;;25.10;14.47;;;;;;;;;;4981501;28;20789;-59
2022/03/11 04:25:42;;;;;;;25.83;14.87;;;;;;;;;;4983056;28;20961;-59
2022/03/11 04:28:08;;;;;;;61.30;16.57;;;;;;;;;;4984625;28;20922;-59
2022/03/11 04:30:34;;;;;;;25.07;14.70;;;;;;;;;;4983696;28;20912;-59
2022/03/11 04:33:00;;;;;;;31.57;15.30;;;;;;;;;;4981212;28;20420;-60
2022/03/11 04:35:26;;;;;;;26.10;14.37;;;;;;;;;;4981040;28;20419;-59
2022/03/11 04:37:52;;;;;;;26.60;15.00;;;;;;;;;;4984400;28;20432;-59
2022/03/11 04:40:18;;;;;;;23.13;13.13;;;;;;;;;;4984224;28;20609;-59
2022/03/11 04:42:44;;;;;;;24.33;14.77;;;;;;;;;;4982196;28;20881;-59
2022/03/11 04:45:10;;;;;;;26.00;14.40;;;;;;;;;;4980803;28;20883;-59
2022/03/11 04:47:36;;;;;;;27.90;15.37;;;;;;;;;;4982420;28;20458;-58
2022/03/11 04:50:03;;;;;;;28.03;14.33;;;;;;;;;;4983744;28;20462;-59
2022/03/11 04:52:29;;;;;;;25.60;15.70;;;;;;;;;;4990512;28;20473;-58
2022/03/11 04:54:55;;;;;;;26.00;14.57;;;;;;;;;;4983955;28;20427;-58
2022/03/11 04:57:21;;;;;;;25.57;15.50;;;;;;;;;;4989685;28;20521;-58
2022/03/11 04:59:47;;;;;;;25.47;14.40;;;;;;;;;;4963969;28;20529;-60
2022/03/11 05:02:13;;;;;;;26.63;14.20;;;;;;;;;;4967383;28;20427;-59
2022/03/11 05:04:39;;;;;;;21.03;13.07;;;;;;;;;;4988113;28;20496;-60
2022/03/11 05:07:07;;;;;;;28.50;15.77;;;;;;;;;;4987011;28;20474;-60
2022/03/11 05:09:33;;;;;;;27.07;14.00;;;;;;;;;;4988429;28;20786;-60
2022/03/11 05:12:00;;;;;;;22.97;13.83;;;;;;;;;;4987748;28;21135;-60
2022/03/11 05:14:26;;;;;;;27.47;15.50;;;;;;;;;;4983207;28;20967;-60
2022/03/11 05:16:52;;;;;;;27.37;14.90;;;;;;;;;;4984358;28;21014;-59
2022/03/11 05:19:18;;;;;;;24.63;15.50;;;;;;;;;;4983178;28;20465;-59
2022/03/11 05:21:44;;;;;;;27.90;14.60;;;;;;;;;;4987081;28;20557;-59
2022/03/11 05:24:10;;;;;;;29.43;15.10;;;;;;;;;;4991791;28;20900;-56
2022/03/11 05:26:36;;;;;;;26.30;14.47;;;;;;;;;;4985352;28;20953;-56
2022/03/11 05:29:02;;;;;;;27.03;15.00;;;;;;;;;;4970393;28;20431;-58
2022/03/11 05:31:29;;;;;;;27.80;15.10;;;;;;;;;;4984789;28;20501;-59
2022/03/11 05:33:55;;;;;;;24.53;15.00;;;;;;;;;;4983908;28;20439;-57
2022/03/11 05:36:22;;;;;;;25.60;14.60;;;;;;;;;;4983364;28;20541;-59
2022/03/11 05:38:48;;;;;;;26.87;14.23;;;;;;;;;;4985997;28;20477;-59
2022/03/11 05:41:14;;;;;;;28.70;14.60;;;;;;;;;;4981934;28;20470;-58
2022/03/11 05:43:40;;;;;;;26.93;14.13;;;;;;;;;;4988222;28;20445;-58
2022/03/11 05:46:07;;;;;;;25.60;14.57;;;;;;;;;;4986912;28;20470;-59
2022/03/11 05:48:33;;;;;;;27.77;15.90;;;;;;;;;;4983903;28;20422;-60
2022/03/11 05:50:59;;;;;;;20.20;13.30;;;;;;;;;;4984516;28;20437;-60
2022/03/11 05:53:25;;;;;;;26.87;14.50;;;;;;;;;;4983720;28;20470;-61
2022/03/11 05:55:51;;;;;;;20.03;13.40;;;;;;;;;;4964645;28;20937;-60
2022/03/11 05:58:17;;;;;;;22.40;13.33;;;;;;;;;;4985842;28;20434;-58
2022/03/11 06:00:43;;;;;;;24.27;14.90;;;;;;;;;;4985339;28;20429;-67
2022/03/11 06:03:10;;;;;;;21.90;13.90;;;;;;;;;;4987430;28;20912;-64
2022/03/11 06:05:36;;;;;;;25.10;13.73;;;;;;;;;;4988013;28;20473;-57
2022/03/11 06:08:02;;;;;;;23.57;14.43;;;;;;;;;;4984422;28;21033;-57
2022/03/11 06:10:28;;;;;;;22.20;13.17;;;;;;;;;;4983147;28;20434;-57
2022/03/11 06:12:54;;;;;;;37.20;15.07;;;;;;;;;;4988659;28;20423;-58
2022/03/11 06:15:20;;;;;;;22.57;15.17;;;;;;;;;;4985981;28;20468;-58
2022/03/11 06:17:46;;;;;;;24.53;12.30;;;;;;;;;;4981295;28;20461;-57
2022/03/11 06:20:13;;;;;;;25.30;13.30;;;;;;;;;;4982007;28;20948;-57
2022/03/11 06:22:49;;;;;;;21.57;12.97;;;;;;;;;;4978889;28;20498;-56
2022/03/11 06:25:15;;;;;;;25.47;12.17;;;;;;;;;;4980382;28;20434;-56
2022/03/11 06:27:41;;;;;;;24.67;13.57;;;;;;;;;;4986728;28;20528;-56
2022/03/11 06:30:08;;;;;;;27.60;14.00;;;5.30;99.90;;;;;;4979534;28;20455;-56
2022/03/11 06:32:40;;;;;;;22.13;12.60;;;;;;;;;;4980305;28;20423;-56
2022/03/11 06:35:06;;;;;;;21.60;13.43;;;;;;;;;;4984986;28;21265;-56
2022/03/11 06:37:33;;;;;;;28.97;13.00;;;;;;;;;;4983315;28;20477;-56
2022/03/11 06:39:59;;;;;;;17.47;10.90;;;;;;;;;;4986654;28;20421;-56
2022/03/11 06:42:25;;;;;;;22.00;12.53;;;;;;;;;;4986715;28;20418;-56
2022/03/11 06:44:51;;;;;;;25.80;12.90;;;;;;;;;;4983363;28;20926;-56
2022/03/11 06:47:17;;;;;;;16.70;10.23;;;;;;;;;;4983028;28;20481;-56
2022/03/11 06:49:43;;;;;;;20.97;12.50;;;;;;;;;;4985133;28;20519;-56
2022/03/11 06:52:09;;;;;;;20.30;12.70;;;;;;;;;;4968840;28;20564;-56
2022/03/11 06:54:35;;;;;;;24.63;10.73;;;;;;;;;;4985472;28;20908;-56
2022/03/11 06:57:01;;;;;;;21.57;10.90;;;;;;;;;;4975795;28;21032;-57
2022/03/11 06:59:27;;;;;;;27.17;10.23;;;;;;;;;;4986187;28;20508;-57
2022/03/11 07:01:53;;;;;;;12.57;10.17;;;;;;;;;;4990892;28;20758;-57
2022/03/11 07:04:19;;;;;;;17.07;10.63;;;;;;;;;;4982807;28;20493;-57
2022/03/11 07:06:45;;;;;;;17.53;11.70;;;;;;;;;;4984953;28;20948;-56
2022/03/11 07:09:11;;;;;;;16.67;10.80;;;;;;;;;;4985043;28;20514;-57
2022/03/11 07:11:38;;;;;;;15.57;11.13;;;;;;;;;;4983823;28;20514;-57
2022/03/11 07:14:04;;;;;;;20.30;12.00;;;;;;;;;;4986080;28;20175;-57
2022/03/11 07:16:30;;;;;;;17.90;11.00;;;;;;;;;;4968111;28;20441;-57
2022/03/11 07:18:56;;;;;;;24.17;13.07;;;;;;;;;;4982584;28;20431;-56
2022/03/11 07:21:22;;;;;;;15.90;10.47;;;;;;;;;;4982477;28;20423;-57
2022/03/11 07:23:54;;;;;;;15.40;10.40;;;;;;;;;;4967738;28;20521;-57
2022/03/11 07:26:20;;;;;;;16.90;9.80;;;;;;;;;;4985756;28;20496;-57
2022/03/11 07:28:46;;;;;;;15.13;10.30;;;;;;;;;;4983261;28;20427;-57
2022/03/11 07:31:12;;;;;;;15.27;11.13;;;3.40;99.90;;;;;;4982079;28;20423;-58
2022/03/11 07:33:38;;;;;;;16.03;10.60;;;;;;;;;;4983828;28;20427;-56
2022/03/11 07:36:04;;;;;;;16.30;10.00;;;;;;;;;;4985702;28;20210;-57
2022/03/11 07:38:31;;;;;;;15.80;10.60;;;;;;;;;;4985064;28;20516;-56
2022/03/11 07:40:58;;;;;;;15.90;10.13;;;;;;;;;;4982132;28;20896;-57
2022/03/11 07:43:25;;;;;;;12.80;9.37;;;;;;;;;;4982205;28;20427;-57
2022/03/11 07:45:52;;;;;;;17.57;10.30;;;;;;;;;;4984786;28;20948;-57
2022/03/11 07:48:18;;;;;;;14.40;9.00;;;6.60;99.90;;;;;;4985444;28;20920;-58
2022/03/11 07:50:45;;;;;;;15.97;10.40;;;;;;;;;;4983180;28;20909;-57
2022/03/11 07:53:11;;;;;;;16.33;10.47;;;5.30;99.90;;;;;;4981823;28;21005;-56
2022/03/11 07:55:37;;;;;;;13.47;9.33;;;;;;;;;;4983175;28;20427;-57
2022/03/11 07:58:03;;;;;;;12.57;7.57;;;;;;;;;;4988569;28;20438;-56
2022/03/11 08:00:29;;;;;;;12.07;8.43;;;;;;;;;;4981880;28;20552;-57
2022/03/11 08:02:55;;;;;;;13.70;9.03;;;;;;;;;;4985043;28;20440;-57
2022/03/11 08:05:21;;;;;;;21.07;10.23;;;5.40;99.90;;;;;;4985018;28;20521;-57
2022/03/11 08:07:50;;;;;;;13.03;8.73;;;;;;;;;;4981542;28;20914;-57
2022/03/11 08:10:17;;;;;;;19.37;9.50;;;5.20;99.90;;;;;;4985054;28;20191;-58
2022/03/11 08:12:43;;;;;;;15.70;10.23;;;5.60;99.90;;;;;;4982798;28;20426;-56
2022/03/11 08:15:11;;;;;;;15.80;9.33;;;5.30;99.90;;;;;;4981291;28;20504;-56
2022/03/11 08:17:38;;;;;;;12.90;8.80;;;5.60;99.90;;;;;;4982750;28;20565;-57
2022/03/11 08:20:05;;;;;;;15.77;10.07;;;5.70;99.90;;;;;;4967499;28;20792;-58
2022/03/11 08:22:30;;;;;;;16.77;9.80;;;5.70;99.90;;;;;;4984363;28;20440;-56
2022/03/11 08:24:56;;;;;;;13.40;9.23;;;5.80;99.90;;;;;;4981505;28;20937;-57
2022/03/11 08:27:22;;;;;;;16.93;8.30;;;5.80;99.90;;;;;;4981213;28;20208;-57
2022/03/11 08:29:47;;;;;;;16.80;10.00;;;5.90;99.90;;;;;;4983837;28;20199;-57
2022/03/11 08:32:13;;;;;;;14.00;8.20;;;6.00;99.90;;;;;;4984622;28;20179;-57
2022/03/11 08:34:38;;;;;;;15.03;9.03;;;6.40;99.90;;;;;;4982891;28;20191;-58
2022/03/11 08:37:06;;;;;;;10.70;8.07;;;6.80;99.90;;;;;;4981080;28;20457;-57
2022/03/11 08:39:31;;;;;;;13.30;8.33;;;6.80;99.90;;;;;;4981746;28;20196;-57
2022/03/11 08:41:57;;;;;;;13.43;8.30;;;6.50;99.90;;;;;;4984284;28;20457;-57
2022/03/11 08:44:23;;;;;;;12.83;7.57;;;;;;;;;;4984289;28;20218;-58
2022/03/11 08:46:49;;;;;;;13.60;8.87;;;6.60;99.90;;;;;;4981231;28;20294;-56
2022/03/11 08:49:15;;;;;;;20.83;9.73;;;;;;;;;;4980918;28;20423;-57
2022/03/11 08:51:43;;;;;;;10.87;6.83;;;7.10;99.90;;;;;;4982484;28;20180;-56
2022/03/11 08:54:09;;;;;;;7.93;7.10;;;7.00;99.90;;;;;;4982723;28;20469;-57
2022/03/11 08:56:34;;;;;;;10.30;8.07;;;;;;;;;;4983455;28;20433;-57
2022/03/11 08:59:01;;;;;;;9.77;6.93;;;;;;;;;;4984016;28;20191;-57
2022/03/11 09:01:27;;;;;;;10.63;7.20;;;7.20;99.90;;;;;;4983939;28;20473;-56
2022/03/11 09:03:53;;;;;;;12.93;7.77;;;7.60;99.90;;;;;;4980635;28;20435;-57
2022/03/11 09:06:20;;;;;;;12.93;7.93;;;;;;;;;;4980683;28;20654;-57
2022/03/11 09:08:46;;;;;;;6.50;5.83;;;7.60;99.90;;;;;;4985048;28;20559;-56
2022/03/11 09:11:12;;;;;;;9.27;7.13;;;;;;;;;;4980501;28;20415;-57
2022/03/11 09:13:38;;;;;;;19.47;8.67;;;8.20;99.90;;;;;;4981700;28;20430;-57
2022/03/11 09:16:04;;;;;;;7.27;6.53;;;8.40;99.90;;;;;;4983841;28;20509;-55
2022/03/11 09:18:30;;;;;;;10.67;7.20;;;8.70;99.90;;;;;;4983470;28;20529;-57
2022/03/11 09:20:55;;;;;;;11.20;8.20;;;8.70;99.90;;;;;;4980432;28;20927;-56
2022/03/11 09:23:22;;;;;;;9.33;7.33;;;;;;;;;;4980490;28;20455;-57
2022/03/11 09:25:50;;;;;;;7.83;7.00;;;;;;;;;;4982791;28;20210;-57
2022/03/11 09:28:16;;;;;;;7.77;6.27;;;;;;;;;;4983522;28;20414;-57
2022/03/11 09:30:42;;;;;;;10.43;8.07;;;;;;;;;;4981563;28;20928;-57
2022/03/11 09:33:08;;;;;;;10.17;6.53;;;;;;;;;;4962703;28;20435;-58
2022/03/11 09:35:33;;;;;;;7.47;6.43;;;9.10;99.90;;;;;;4981028;28;20435;-57
2022/03/11 09:38:00;;;;;;;9.80;7.13;;;;;;;;;;4983451;28;20449;-58
2022/03/11 09:40:26;;;;;;;6.43;5.60;;;;;;;;;;4983491;28;20214;-57
2022/03/11 09:42:52;;;;;;;14.77;7.10;;;;;;;;;;4980236;28;20928;-59
2022/03/11 09:45:23;;;;;;;8.47;7.07;;;;;;;;;;4962272;28;21032;-58
2022/03/11 09:47:48;;;;;;;7.63;6.83;;;9.70;99.90;;;;;;4982885;28;20429;-58
2022/03/11 09:50:15;;;;;;;7.90;6.60;;;;;;;;;;4983303;28;20484;-57
2022/03/11 09:52:42;;;;;;;7.30;5.80;;;;;;;;;;4981360;28;20242;-57
2022/03/11 09:55:08;;;;;;;9.50;5.70;;;;;;;;;;4979713;28;20431;-57
2022/03/11 09:57:34;;;;;;;15.67;6.60;;;;;;;;;;4988846;28;20427;-58
2022/03/11 10:00:00;;;;;;;10.70;7.70;;;;;;;;;;4983106;28;20481;-57
2022/03/11 10:02:26;;;;;;;6.40;5.40;;;;;;;;;;4983156;28;20422;-59
2022/03/11 10:04:53;;;;;;;7.67;6.87;;;;;;;;;;4980007;28;20905;-57
2022/03/11 10:07:26;;;;;;;9.00;6.20;;;;;;;;;;4979681;28;20258;-58
2022/03/11 10:09:53;;;;;;;12.73;6.20;;;;;;;;;;4983729;28;20864;-57
2022/03/11 10:12:26;;;;;;;7.70;5.87;;;;;;;;;;4987519;28;20770;-57
2022/03/11 10:14:58;;;;;;;7.40;5.77;;;10.10;1.00;;;;;;4983910;28;20454;-57
2022/03/11 10:17:25;;;;;;;8.70;5.50;;;;;;;;;;4983826;28;20434;-57
2022/03/11 10:20:14;;;;;;;6.23;5.30;;;;;;;;;;4969175;28;20434;-57
2022/03/11 10:22:41;;;;;;;6.83;5.80;;;11.20;1.00;;;;;;4983351;28;20430;-58
2022/03/11 10:25:08;;;;;;;10.17;6.10;;;;;;;;;;4983617;28;20518;-57
2022/03/11 10:27:58;;;;;;;8.47;6.20;;;10.90;1.00;;;;;;4984302;28;20462;-57
2022/03/11 10:30:25;;;;;;;8.60;5.93;;;10.90;1.00;;;;;;4986771;28;20520;-57
2022/03/11 10:32:52;;;;;;;9.30;5.90;;;;;;;;;;4983670;28;20498;-57
2022/03/11 10:35:22;;;;;;;9.67;6.00;;;;;;;;;;4965956;28;20585;-58
2022/03/11 10:37:59;;;;;;;10.70;6.40;;;;;;;;;;4972140;28;20959;-57
2022/03/11 10:40:25;;;;;;;9.83;5.87;;;;;;;;;;4986787;28;20429;-57
2022/03/11 10:43:08;;;;;;;7.07;5.80;;;;;;;;;;4983490;28;20423;-58
2022/03/11 10:45:43;;;;;;;11.60;5.40;;;;;;;;;;4984010;28;20594;-57
2022/03/11 10:48:09;;;;;;;8.63;5.90;;;;;;;;;;4986635;28;21038;-57
2022/03/11 10:50:37;;;;;;;8.70;6.20;;;;;;;;;;4985715;28;20512;-57
2022/03/11 10:53:08;;;;;;;5.93;5.40;;;;;;;;;;4965502;28;20622;-58
2022/03/11 10:55:34;;;;;;;8.70;5.60;;;;;;;;;;4983935;28;21171;-58
2022/03/11 10:58:01;;;;;;;7.27;5.33;;;;;;;;;;4972427;28;20918;-58
2022/03/11 11:00:31;;;;;;;8.87;5.63;;;;;;;;;;4983140;28;20425;-58
2022/03/11 11:03:01;;;;;;;7.17;5.90;;;;;;;;;;4986359;28;20422;-58
2022/03/11 11:05:28;;;;;;;6.47;5.23;;;;;;;;;;4986361;28;20416;-58
2022/03/11 11:07:56;;;;;;;8.60;5.65;;;;;;;;;;4993094;28;20770;-58
2022/03/11 11:10:23;;;;;;;6.90;6.10;;;;;;;;;;4986280;28;20529;-58
2022/03/11 11:12:49;;;;;;;8.83;5.80;;;;;;;;;;4983452;28;20441;-58
2022/03/11 11:15:15;;;;;;;6.83;5.13;;;;;;;;;;4982680;28;20985;-58
2022/03/11 11:17:45;;;;;;;7.03;4.60;;;;;;;;;;4984613;28;20518;-58
2022/03/11 11:20:23;;;;;;;6.23;5.70;;;;;;;;;;4980075;28;20445;-58
2022/03/11 11:22:51;;;;;;;8.37;5.47;;;;;;;;;;4985671;28;20430;-58
2022/03/11 11:25:18;;;;;;;7.43;5.23;;;;;;;;;;4985913;28;20418;-58
2022/03/11 11:27:45;;;;;;;8.40;5.50;;;;;;;;;;4983607;28;20971;-57
2022/03/11 11:30:11;;;;;;;8.23;5.10;;;;;;;;;;4982273;28;20426;-57
2022/03/11 11:32:38;;;;;;;5.97;5.40;;;;;;;;;;4983585;28;20522;-57
2022/03/11 11:35:27;;;;;;;5.47;4.97;;;;;;;;;;4985687;28;20521;-57
2022/03/11 11:37:53;;;;;;;6.00;5.40;;;;;;;;;;4982259;28;20427;-56
2022/03/11 11:40:24;;;;;;;6.90;4.50;;;;;;;;;;4985509;28;20414;-56
2022/03/11 11:43:09;;;;;;;6.93;5.67;;;;;;;;;;4982495;28;20458;-58
2022/03/11 11:45:47;;;;;;;7.40;5.43;;;10.60;1.00;;;;;;4982776;28;20517;-58
2022/03/11 11:48:45;;;;;;;9.53;5.33;;;16.30;1.00;;;;;;4985507;28;20436;-57
2022/03/11 11:51:12;;;;;;;7.60;4.90;;;16.30;1.00;;;;;;4987794;28;20415;-57
2022/03/11 11:53:51;;;;;;;8.37;5.27;;;;;;;;;;4983654;28;20497;-58
2022/03/11 11:56:26;;;;;;;7.73;5.30;;;;;;;;;;4986419;28;20461;-58
2022/03/11 11:58:52;;;;;;;5.33;4.83;;;;;;;;;;4985066;28;20469;-58
2022/03/11 12:01:44;;;;;;;7.50;5.30;;;16.20;1.00;;;;;;4985315;28;20422;-58
2022/03/11 12:04:29;;;;;;;5.27;4.80;;;15.50;1.00;;;;;;4974832;28;20428;-58
2022/03/11 12:06:55;;;;;;;6.73;4.33;;;;;;;;;;4975512;28;20476;-57
2022/03/11 12:09:42;;;;;;;6.10;5.60;;;;;;;;;;4982359;28;20431;-57
2022/03/11 12:12:08;;;;;;;6.53;5.70;;;;;;;;;;4985202;28;20468;-58
2022/03/11 12:14:54;;;;;;;6.87;4.97;;;;;;;;;;4983950;28;20454;-58
2022/03/11 12:17:36;;;;;;;6.43;5.73;;;;;;;;;;4967908;28;20254;-57
2022/03/11 12:20:20;;;;;;;5.33;4.83;;;;;;;;;;4984885;28;20426;-59
2022/03/11 12:23:05;;;;;;;10.97;5.17;;;;;;;;;;4982337;28;20429;-58
2022/03/11 12:25:31;;;;;;;5.13;4.60;;;;;;;;;;4981789;28;20427;-58
2022/03/11 12:27:58;;;;;;;4.60;4.30;;;;;;;;;;4984702;28;20562;-57
2022/03/11 12:30:25;;;;;;;8.10;5.90;;;;;;;;;;4984636;28;20195;-57
2022/03/11 12:32:52;;;;;;;7.67;5.47;;;;;;;;;;4980556;28;20762;-58
2022/03/11 12:35:19;;;;;;;17.43;6.33;;;;;;;;;;4981073;28;20493;-57
2022/03/11 12:37:45;;;;;;;7.43;5.30;;;14.40;1.00;;;;;;4983544;28;20431;-58
2022/03/11 12:40:11;;;;;;;6.50;4.30;;;;;;;;;;4984512;28;20509;-57
2022/03/11 12:42:38;;;;;;;6.33;5.00;;;;;;;;;;4982943;28;20537;-58
2022/03/11 12:45:04;;;;;;;5.87;5.20;;;;;;;;;;4981181;28;20434;-58
2022/03/11 12:47:37;;;;;;;7.37;5.57;;;;;;;;;;4981251;28;20461;-58
2022/03/11 12:50:05;;;;;;;9.27;4.80;;;13.60;1.00;;;;;;4984250;28;20518;-57
2022/03/11 12:52:40;;;;;;;10.00;5.03;;;13.80;1.00;;;;;;4983637;28;20458;-57
2022/03/11 12:55:26;;;;;;;12.43;4.60;;;13.20;1.00;;;;;;4980955;28;20496;-57
2022/03/11 12:57:53;;;;;;;7.80;4.90;;;;;;;;;;4988570;28;20431;-57
2022/03/11 13:00:23;;;;;;;4.80;4.30;;;;;;;;;;4980577;28;20905;-57
2022/03/11 13:02:50;;;;;;;4.63;4.30;;;;;;;;;;4966030;28;20433;-57
2022/03/11 13:05:22;;;;;;;4.20;3.90;;;;;;;;;;4966537;28;21060;-57
2022/03/11 13:07:49;;;;;;;9.13;3.90;;;12.90;1.00;;;;;;4980265;28;20445;-57
2022/03/11 13:10:24;;;;;;;6.77;4.67;;;;;;;;;;4983941;28;20492;-57
2022/03/11 13:12:51;;;;;;;7.53;4.87;;;13.30;1.00;;;;;;4980630;28;20566;-57
2022/03/11 13:15:22;;;;;;;4.00;3.80;;;;;;;;;;4980504;28;20910;-57
2022/03/11 13:17:48;;;;;;;4.73;4.20;;;;;;;;;;4982942;28;20656;-57
2022/03/11 13:20:26;;;;;;;4.00;3.77;;;;;;;;;;4983812;28;20481;-57
2022/03/11 13:22:52;;;;;;;6.77;4.73;;;;;;;;;;4980516;28;21058;-57
2022/03/11 13:25:25;;;;;;;5.63;3.83;;;;;;;;;;4980220;28;20445;-57
2022/03/11 13:27:51;;;;;;;5.40;4.90;;;;;;;;;;4983300;28;20426;-58
2022/03/11 13:30:37;;;;;;;4.73;3.97;;;13.60;1.00;;;;;;4983672;28;20507;-58
2022/03/11 13:33:23;;;;;;;7.97;4.20;;;;;;;;;;4983599;28;20426;-58
2022/03/11 13:36:04;;;;;;;4.33;3.93;;;;;;;;;;4980596;28;20423;-58
2022/03/11 13:38:34;;;;;;;4.90;4.50;;;;;;;;;;4970651;28;20464;-57
2022/03/11 13:41:00;;;;;;;5.97;4.07;;;;;;;;;;4980032;28;20419;-57
2022/03/11 13:43:26;;;;;;;5.03;4.33;;;;;;;;;;4979796;28;20913;-57
2022/03/11 13:45:53;;;;;;;5.10;3.50;;;;;;;;;;4983203;28;20508;-57
2022/03/11 13:48:25;;;;;;;6.70;4.20;;;13.40;1.00;;;;;;4983094;28;20430;-57
2022/03/11 13:50:58;;;;;;;16.53;5.43;;;;;;;;;;4980167;28;20411;-57
2022/03/11 13:53:29;;;;;;;6.60;4.80;;;;;;;;;;4979941;28;20806;-57
2022/03/11 13:55:55;;;;;;;4.73;4.33;;;;;;;;;;4983299;28;20554;-57
2022/03/11 13:58:25;;;;;;;4.13;3.80;;;;;;;;;;4984090;28;20423;-57
2022/03/11 14:00:52;;;;;;;4.53;4.00;;;;;;;;;;4982793;28;20414;-57
2022/03/11 14:03:19;;;;;;;5.00;4.60;;;;;;;;;;4983119;28;20789;-58
2022/03/11 14:05:46;;;;;;;5.53;4.40;;;;;;;;;;4980673;28;20464;-57
2022/03/11 14:08:15;;;;;;;4.70;4.30;;;;;;;;;;4982013;28;20558;-58
2022/03/11 14:10:43;;;;;;;4.67;4.27;;;;;;;;;;4981260;28;20430;-58
2022/03/11 14:13:11;;;;;;;4.53;4.23;;;;;;;;;;4979566;28;20905;-58